Time;durP1;ratioP1;P1;durP2;ratioP2;P2;SDS_P1;SDS_P2;PMS_P1;PMS_P2;Temp;Humidity;BMP_temperature;BMP_pressure;BME280_temperature;BME280_humidity;BME280_pressure;Samples;Min_cycle;Max_cycle;Signal;HPM_P1;HPM_P2
2022/08/03 00:03:22;;;;;;;1.12;0.95;;;;;;;17.14;84.62;97762.44;18437917;32;20033;-61
2022/08/03 00:13:25;;;;;;;1.65;1.20;;;;;;;17.03;85.30;97759.13;18438923;32;20071;-61
2022/08/03 00:23:27;;;;;;;2.07;1.40;;;;;;;16.92;85.73;97755.88;18437188;32;20387;-61
2022/08/03 00:33:50;;;;;;;1.83;1.20;;;;;;;16.77;86.11;97748.81;18437749;32;20057;-61
2022/08/03 00:44:00;;;;;;;3.30;1.27;;;;;;;16.65;86.67;97753.16;18437327;32;20067;-61
2022/08/03 00:54:03;;;;;;;1.40;1.20;;;;;;;16.51;87.53;97759.50;18436555;32;20052;-61
2022/08/03 01:04:06;;;;;;;1.37;1.10;;;;;;;16.40;87.65;97755.34;18447765;32;20124;-61
2022/08/03 01:14:15;;;;;;;1.40;1.17;;;;;;;16.27;88.18;97752.34;18434223;32;20130;-61
2022/08/03 01:24:48;;;;;;;1.42;1.10;;;;;;;16.18;88.40;97745.19;18434452;32;20066;-61
2022/08/03 01:34:58;;;;;;;2.40;1.20;;;;;;;16.04;88.77;97742.47;18445963;32;20049;-61
2022/08/03 01:45:02;;;;;;;1.77;0.98;;;;;;;15.99;89.11;97734.38;18433589;32;20385;-61
2022/08/03 01:55:06;;;;;;;1.35;1.12;;;;;;;15.92;89.54;97735.63;18434822;32;20090;-61
2022/08/03 02:05:10;;;;;;;;;;;;;;;15.88;90.13;97733.78;18497066;32;20477;-61
2022/08/03 02:15:15;;;;;;;1.10;1.00;;;;;;;15.77;89.95;97727.69;18482467;32;19996;-61
2022/08/03 02:25:17;;;;;;;1.92;1.27;;;;;;;15.71;90.43;97737.09;18495822;32;20064;-61
2022/08/03 02:35:23;;;;;;;1.98;1.10;;;;;;;15.61;91.02;97731.81;18495000;32;20567;-61
2022/08/03 02:45:27;;;;;;;2.03;1.55;;;;;;;15.57;91.52;97735.16;18495550;32;20041;-61
2022/08/03 02:55:32;;;;;;;1.85;1.37;;;;;;;15.50;91.52;97715.66;18494834;32;20072;-61
2022/08/03 03:05:36;;;;;;;4.65;1.27;;;;;;;15.39;92.14;97717.78;18481208;32;20041;-61
2022/08/03 03:16:00;;;;;;;3.20;1.30;;;;;;;15.27;92.17;97713.94;18494809;32;20050;-61
2022/08/03 03:26:04;;;;;;;2.53;1.37;;;;;;;15.20;93.03;97708.88;18494276;32;20037;-61
2022/08/03 03:36:07;;;;;;;1.80;1.50;;;;;;;15.13;93.06;97716.59;18493830;32;20376;-61
2022/08/03 03:46:12;;;;;;;3.43;1.40;;;;;;;15.05;93.03;97713.44;18482165;32;20097;-61
2022/08/03 03:56:14;;;;;;;3.60;1.50;;;;;;;14.98;93.65;97718.47;18504118;32;20100;-61
2022/08/03 04:16:42;;;;;;;2.10;1.35;;;;;;;14.89;94.55;97736.59;18503628;32;20068;-61
2022/08/03 04:26:48;;;;;;;1.70;1.10;;;;;;;14.80;94.48;97731.03;18489064;32;20440;-61
2022/08/03 04:37:00;;;;;;;3.93;1.50;;;;;;;14.75;94.82;97731.09;18502605;32;20049;-61
2022/08/03 04:47:05;;;;;;;2.30;1.30;;;;;;;14.81;95.23;97740.00;18487416;32;20069;-61
2022/08/03 04:57:10;;;;;;;2.57;1.50;;;;;;;14.91;95.32;97746.09;18485982;32;20373;-61
2022/08/03 05:07:25;;;;;;;2.00;1.50;;;;;;;15.12;95.07;97734.88;18500328;32;20045;-61
2022/08/03 05:17:37;;;;;;;1.33;1.20;;;;;;;15.41;94.15;97750.16;18499854;32;20056;-61
2022/08/03 05:27:40;;;;;;;1.75;1.40;;;;;;;15.80;93.74;97743.50;18498750;32;20444;-61
2022/08/03 05:37:42;;;;;;;1.62;1.33;;;;;;;16.18;93.42;97740.53;18498739;32;20373;-61
2022/08/03 05:47:58;;;;;;;1.33;1.17;;;;;;;16.55;92.14;97763.22;18496711;32;20113;-61
2022/08/03 05:58:02;;;;;;;1.52;1.10;;;;;;;17.02;90.91;97763.00;18496867;32;20421;-62
2022/08/03 06:08:05;;;;;;;1.70;1.40;;;;;;;17.52;88.66;97767.50;18496684;32;20068;-61
2022/08/03 06:18:08;;;;;;;1.27;1.05;;;;;;;18.03;86.95;97768.06;18496697;32;20068;-62
2022/08/03 06:28:12;;;;;;;2.53;1.15;;;;;;;18.56;84.14;97773.69;18482039;32;20357;-62
2022/08/03 06:38:36;;;;;;;2.35;1.60;;;;;;;19.19;81.87;97770.66;18495697;32;20124;-62
2022/08/03 06:48:42;;;;;;;1.50;1.33;;;;;;;19.93;77.92;97769.53;18495210;32;20094;-62
2022/08/03 06:58:46;;;;;;;2.03;1.30;;;;;;;20.53;76.67;97783.28;18494465;32;20044;-62
2022/08/03 07:08:48;;;;;;;;;;;;;;;21.02;73.28;97777.25;18480650;32;20357;-62
2022/08/03 07:18:55;;;;;;;2.12;1.30;;;;;;;21.48;68.45;97786.38;18494966;32;20298;-62
2022/08/03 07:29:00;;;;;;;;;;;;;;;21.99;67.99;97788.13;18479481;32;20470;-62
2022/08/03 07:39:13;;;;;;;2.28;1.85;;;;;;;22.50;64.52;97793.31;18505871;32;19948;-62
2022/08/03 07:49:20;;;;;;;3.08;1.75;;;;;;;23.10;62.67;97799.03;18505065;32;20417;-62
2022/08/03 07:59:22;;;;;;;2.87;1.95;;;;;;;23.75;61.71;97789.81;18503475;32;20109;-62
2022/08/03 08:09:26;;;;;;;4.00;1.75;;;;;;;24.32;58.65;97787.69;18504219;32;20161;-63
2022/08/03 08:19:30;;;;;;;2.58;1.92;;;;;;;24.84;55.30;97782.19;18503163;32;20116;-63
2022/08/03 08:40:13;;;;;;;2.67;2.12;;;;;;;25.87;50.65;97781.81;18236101;32;20134;-62
2022/08/03 08:50:20;;;;;;;3.60;2.30;;;;;;;26.50;52.35;97779.69;18237067;32;20135;-62
2022/08/03 09:00:30;;;;;;;3.05;2.10;;;;;;;27.05;49.91;97776.50;18235363;32;20078;-62
2022/08/03 09:10:33;;;;;;;2.97;2.20;;;;;;;27.60;50.34;97776.00;18252746;32;20437;-62
2022/08/03 09:20:37;;;;;;;2.12;1.85;;;;;;;27.90;49.52;97780.63;18369654;32;20060;-63
2022/08/03 09:30:43;;;;;;;3.08;2.30;;;;;;;28.26;47.38;97780.97;18369336;32;20095;-62
2022/08/03 09:40:49;;;;;;;2.47;2.00;;;;;;;28.72;47.82;97777.72;18356547;32;20366;-62
2022/08/03 09:51:53;;;;;;;2.53;2.20;;;;;;;29.13;45.58;97762.78;18108378;32;20067;-62
2022/08/03 10:02:34;;;;;;;2.22;2.03;;;;;;;29.64;44.06;97766.53;18155835;32;20074;-62
2022/08/03 10:12:43;;;;;;;2.00;1.80;;;;;;;30.06;44.96;97756.66;18169580;32;20109;-62
2022/08/03 10:22:47;;;;;;;2.30;1.87;;;;;;;30.62;43.02;97761.03;18318765;32;20058;-62
2022/08/03 10:32:59;;;;;;;3.60;2.05;;;;;;;30.86;39.44;97742.59;18430638;32;20053;-62
2022/08/03 10:44:05;;;;;;;;;;;;;;;;;;;;;
2022/08/03 11:05:36;;;;;;;2.83;1.98;;;;;;;32.20;37.05;97709.88;18305943;32;20097;-62
2022/08/03 11:15:55;;;;;;;2.00;1.58;;;;;;;32.50;38.01;97707.59;18282346;32;20125;-62
2022/08/03 11:26:22;;;;;;;2.92;2.05;;;;;;;32.80;37.36;97695.66;18357704;32;20475;-62
2022/08/03 11:36:31;;;;;;;2.53;1.80;;;;;;;33.16;35.31;97695.19;18440231;32;20061;-62
2022/08/03 11:46:40;;;;;;;3.45;1.80;;;;;;;33.17;33.88;97690.41;18439691;32;20078;-62
2022/08/03 11:56:47;;;;;;;2.40;1.50;;;;;;;33.66;32.53;97687.28;18449181;32;20360;-63
2022/08/03 12:07:00;;;;;;;2.33;1.75;;;;;;;33.84;33.87;97687.03;18503948;32;20102;-63
2022/08/03 12:17:06;;;;;;;2.37;1.60;;;;;;;34.19;32.55;97679.97;18503872;32;20112;-63
2022/08/03 12:27:28;;;;;;;2.47;1.63;;;;;;;34.52;33.20;97662.56;18503524;32;20402;-62
2022/08/03 12:37:37;;;;;;;2.10;1.90;;;;;;;34.55;31.82;97667.31;18502525;32;20065;-62
2022/08/03 12:47:59;;;;;;;2.17;1.55;;;;;;;34.73;30.17;97652.94;18488167;32;20080;-62
2022/08/03 12:58:06;;;;;;;1.50;1.40;;;;;;;35.27;31.45;97655.34;18500712;32;20053;-62
2022/08/03 13:08:22;;;;;;;2.10;1.30;;;;;;;35.50;30.14;97647.25;18486262;32;20056;-62
2022/08/03 13:18:32;;;;;;;2.47;1.40;;;;;;;35.73;28.62;97652.69;18499328;32;20057;-62
2022/08/03 13:28:39;;;;;;;1.48;1.30;;;;;;;36.08;28.09;97650.19;18498950;32;20053;-62
2022/08/03 13:38:46;;;;;;;2.35;1.65;;;;;;;36.18;28.37;97639.91;18484845;32;20085;-62
2022/08/03 13:48:51;;;;;;;3.53;1.80;;;;;;;36.52;30.79;97632.94;18483588;32;20116;-62
2022/08/03 13:58:58;;;;;;;2.50;1.58;;;;;;;36.88;28.24;97633.94;18497047;32;20049;-62
2022/08/03 14:10:00;;;;;;;1.85;1.52;;;;;;;37.46;29.42;97630.16;18492250;32;20079;-62
2022/08/03 14:20:07;;;;;;;3.00;1.60;;;;;;;37.89;26.88;97622.31;18495422;32;20048;-62
2022/08/03 14:30:34;;;;;;;2.08;1.73;;;;;;;37.98;25.79;97608.28;18496361;32;20061;-62
2022/08/03 14:40:39;;;;;;;2.17;1.77;;;;;;;37.70;25.49;97610.81;18495643;32;20076;-62
2022/08/03 14:50:45;;;;;;;2.33;1.50;;;;;;;38.49;25.45;97595.97;18481706;32;20342;-62
2022/08/03 15:00:54;;;;;;;2.10;1.60;;;;;;;38.43;27.00;97595.00;18495175;32;20050;-62
2022/08/03 15:11:07;;;;;;;2.85;2.15;;;;;;;37.96;28.16;97583.34;18494621;32;20053;-62
2022/08/03 15:21:11;;;;;;;3.03;2.05;;;;;;;36.47;28.07;97569.53;18479918;32;20365;-62
2022/08/03 15:31:35;;;;;;;2.20;2.00;;;;;;;35.31;31.39;97553.31;18494091;32;20102;-62
2022/08/03 15:41:40;;;;;;;2.28;1.70;;;;;;;34.84;33.09;97537.53;18481650;32;20048;-62
2022/08/03 15:51:44;;;;;;;3.25;2.33;;;;;;;34.34;31.05;97529.00;18505538;32;20376;-62
2022/08/03 16:12:54;;;;;;;2.20;1.95;;;;;;;33.18;34.86;97516.28;18503883;32;20083;-62
2022/08/03 16:23:08;;;;;;;2.17;1.98;;;;;;;32.82;36.52;97508.44;18503372;32;20101;-62
2022/08/03 16:33:37;;;;;;;2.05;1.70;;;;;;;32.71;37.68;97503.00;18486367;32;20087;-61
2022/08/03 16:43:49;;;;;;;2.10;1.50;;;;;;;33.05;40.14;97507.66;18488880;32;20083;-62
2022/08/03 16:53:59;;;;;;;2.67;1.70;;;;;;;32.83;38.91;97504.41;18499635;32;20049;-62
2022/08/03 17:04:12;;;;;;;1.70;1.60;;;;;;;31.96;44.01;97499.16;18500189;32;20433;-62
2022/08/03 17:14:23;;;;;;;2.10;1.48;;;;;;;31.17;45.60;97497.94;18500599;32;20331;-62
2022/08/03 17:24:35;;;;;;;1.60;1.50;;;;;;;30.63;47.01;97489.94;18500036;32;20057;-62
2022/08/03 17:34:47;;;;;;;2.17;1.87;;;;;;;30.12;48.22;97477.44;18484812;32;20053;-62
2022/08/03 17:44:55;;;;;;;1.80;1.70;;;;;;;29.68;49.58;97472.03;18483974;32;20360;-62
2022/08/03 17:55:22;;;;;;;2.12;1.70;;;;;;;29.28;49.73;97476.84;18496929;32;20097;-62
2022/08/03 18:06:02;;;;;;;2.20;1.75;;;;;;;28.87;50.28;97480.81;18368214;32;20418;-62
2022/08/03 18:16:23;;;;;;;1.90;1.70;;;;;;;28.43;52.02;97476.38;18368280;32;20089;-62
2022/08/03 18:26:28;;;;;;;3.08;1.85;;;;;;;27.94;53.66;97484.13;18367638;32;20049;-62
2022/08/03 18:36:36;;;;;;;9.13;2.83;;;;;;;27.47;57.09;97488.66;18367249;32;20071;-62
2022/08/03 18:46:58;;;;;;;8.70;3.40;;;;;;;27.02;58.73;97483.91;18353239;32;20049;-62
2022/08/03 18:57:17;;;;;;;3.10;2.37;;;;;;;26.57;59.72;97488.63;18388713;32;20045;-62
2022/08/03 19:07:33;;;;;;;3.28;2.30;;;;;;;26.10;61.65;97495.66;18494625;32;20057;-61
2022/08/03 19:17:43;;;;;;;2.33;2.00;;;;;;;25.65;63.19;97499.00;18483517;32;20075;-61
2022/08/03 19:28:00;;;;;;;2.20;1.80;;;;;;;25.22;63.90;97492.84;18507014;32;20072;-62
2022/08/03 19:38:08;;;;;;;2.58;2.10;;;;;;;24.82;64.04;97496.94;18506380;32;20041;-61
2022/08/03 19:48:19;;;;;;;3.50;2.17;;;;;;;24.46;64.14;97507.28;18505501;32;20503;-61
2022/08/03 19:58:30;;;;;;;3.00;2.40;;;;;;;24.18;65.12;97505.59;18490996;32;20072;-61
2022/08/03 20:08:35;;;;;;;3.30;2.22;;;;;;;23.92;66.00;97511.78;18504123;32;20102;-62
2022/08/03 20:18:46;;;;;;;3.22;2.65;;;;;;;23.59;67.29;97513.00;18503878;32;20056;-61
2022/08/03 20:28:52;;;;;;;3.40;2.45;;;;;;;23.28;68.25;97515.47;18489423;32;20048;-61
2022/08/03 20:38:56;;;;;;;2.60;2.22;;;;;;;23.01;69.00;97504.16;18502476;32;20045;-61
2022/08/03 20:49:01;;;;;;;3.22;2.53;;;;;;;22.76;70.24;97503.53;18501922;32;20093;-61
2022/08/03 20:59:08;;;;;;;3.05;2.20;;;;;;;22.52;70.95;97498.97;18501187;32;20067;-61
2022/08/03 21:09:18;;;;;;;2.25;1.73;;;;;;;22.26;71.85;97502.97;18500415;32;20064;-61
2022/08/03 21:19:29;;;;;;;2.35;2.00;;;;;;;22.09;71.95;97503.25;18500149;32;20064;-61
2022/08/03 21:29:37;;;;;;;2.25;1.90;;;;;;;21.91;72.59;97498.06;18499372;32;20479;-61
2022/08/03 21:39:55;;;;;;;3.20;1.92;;;;;;;21.77;73.78;97492.13;18498503;32;20049;-61
2022/08/03 21:50:01;;;;;;;4.05;2.50;;;;;;;21.61;74.60;97500.31;18498040;32;20045;-61
2022/08/03 22:00:19;;;;;;;7.43;4.28;;;;;;;21.46;74.70;97501.78;18483100;32;20044;-61
2022/08/03 22:10:27;;;;;;;4.45;3.10;;;;;;;21.30;75.82;97501.72;18497115;32;20057;-62
2022/08/03 22:20:30;;;;;;;4.80;3.80;;;;;;;21.15;76.29;97514.19;18496783;32;20095;-62
2022/08/03 22:30:34;;;;;;;4.50;2.30;;;;;;;20.96;76.90;97523.81;18495995;32;20069;-62
2022/08/03 22:40:37;;;;;;;5.32;2.83;;;;;;;20.83;77.29;97516.72;18496369;32;20335;-62
2022/08/03 22:50:42;;;;;;;2.72;2.20;;;;;;;20.68;78.13;97525.56;18496533;32;20062;-62
2022/08/03 23:01:01;;;;;;;3.25;2.30;;;;;;;20.53;78.62;97527.81;18507092;32;20036;-62
2022/08/03 23:11:09;;;;;;;4.90;1.98;;;;;;;20.38;79.40;97528.44;18508169;32;20116;-62
2022/08/03 23:21:12;;;;;;;1.95;1.75;;;;;;;20.21;80.00;97521.97;18493441;32;20064;-62
2022/08/03 23:31:17;;;;;;;2.10;1.77;;;;;;;20.05;79.80;97521.00;18506562;32;20068;-62
2022/08/03 23:41:21;;;;;;;3.80;2.30;;;;;;;19.93;80.07;97528.03;18491786;32;20056;-62
2022/08/03 23:51:45;;;;;;;2.67;2.22;;;;;;;19.88;80.71;97528.22;18491246;32;20033;-62
